createdAt,value
2023-01-12T00:01:52.582Z,6.40
2023-01-12T00:04:19.761Z,6.40
2023-01-12T00:06:47.250Z,6.40
2023-01-12T00:09:14.415Z,6.40
2023-01-12T00:11:41.585Z,6.40
2023-01-12T00:14:09.909Z,6.40
2023-01-12T00:16:38.165Z,6.30
2023-01-12T00:19:16.765Z,6.30
2023-01-12T00:21:50.541Z,6.30
2023-01-12T00:24:18.718Z,6.40
2023-01-12T00:26:49.686Z,6.30
2023-01-12T00:29:17.768Z,6.30
2023-01-12T00:31:45.341Z,6.30
2023-01-12T00:34:13.273Z,6.30
2023-01-12T00:36:40.743Z,6.20
2023-01-12T00:39:07.972Z,6.30
2023-01-12T00:41:55.777Z,6.30
2023-01-12T00:44:41.595Z,6.20
2023-01-12T00:47:09.590Z,6.20
2023-01-12T00:49:37.908Z,6.30
2023-01-12T00:52:06.632Z,6.20
2023-01-12T00:54:34.787Z,6.20
2023-01-12T00:57:03.129Z,6.10
2023-01-12T00:59:30.658Z,6.10
2023-01-12T01:01:58.171Z,6.10
2023-01-12T01:04:25.643Z,6.10
2023-01-12T01:06:52.811Z,6.00
2023-01-12T01:09:20.105Z,6.00
2023-01-12T01:11:47.182Z,6.00
2023-01-12T01:14:14.361Z,6.00
2023-01-12T01:16:41.669Z,5.90
2023-01-12T01:19:09.751Z,5.90
2023-01-12T01:21:36.831Z,5.90
2023-01-12T01:24:04.138Z,5.90
2023-01-12T01:26:31.923Z,5.90
2023-01-12T01:28:59.055Z,5.80
2023-01-12T01:31:26.866Z,5.90
2023-01-12T01:33:54.168Z,5.80
2023-01-12T01:36:22.042Z,5.80
2023-01-12T01:38:50.432Z,5.80
2023-01-12T01:41:24.145Z,5.80
2023-01-12T01:43:58.572Z,5.80
2023-01-12T01:46:45.860Z,5.70
2023-01-12T01:49:28.114Z,5.80
2023-01-12T01:52:00.353Z,5.80
2023-01-12T01:54:30.804Z,5.70
2023-01-12T01:56:58.149Z,5.70
2023-01-12T01:59:30.862Z,5.70
2023-01-12T02:01:58.786Z,5.80
2023-01-12T02:04:26.071Z,5.70
2023-01-12T02:06:55.891Z,5.70
2023-01-12T02:09:26.265Z,5.70
2023-01-12T02:12:27.860Z,5.70
2023-01-12T02:15:14.663Z,5.70
2023-01-12T02:17:41.670Z,5.70
2023-01-12T02:20:36.668Z,5.70
2023-01-12T02:23:22.757Z,5.70
2023-01-12T02:26:29.069Z,5.70
2023-01-12T02:29:23.984Z,5.70
2023-01-12T02:32:07.432Z,5.60
2023-01-12T02:34:50.175Z,5.60
2023-01-12T02:37:23.006Z,5.60
2023-01-12T02:40:01.143Z,5.60
2023-01-12T02:43:06.933Z,5.60
2023-01-12T02:45:49.665Z,5.50
2023-01-12T02:48:28.336Z,5.60
2023-01-12T02:51:05.618Z,5.50
2023-01-12T02:53:43.347Z,5.50
2023-01-12T02:56:14.807Z,5.40
2023-01-12T02:58:47.334Z,5.40
2023-01-12T03:01:16.921Z,5.40
2023-01-12T03:03:44.293Z,5.40
2023-01-12T03:06:16.407Z,5.30
2023-01-12T03:08:44.811Z,5.30
2023-01-12T03:11:20.770Z,5.30
2023-01-12T03:13:47.848Z,5.20
2023-01-12T03:16:19.340Z,5.20
2023-01-12T03:18:59.004Z,5.20
2023-01-12T03:21:36.239Z,5.20
2023-01-12T03:24:08.952Z,5.20
2023-01-12T03:26:42.037Z,5.20
2023-01-12T03:29:17.257Z,5.20
2023-01-12T03:31:44.438Z,5.20
2023-01-12T03:34:12.035Z,5.20
2023-01-12T03:36:48.711Z,5.20
2023-01-12T03:39:57.246Z,5.20
2023-01-12T03:42:30.357Z,5.20
2023-01-12T03:45:03.286Z,5.20
2023-01-12T03:47:32.998Z,5.20
2023-01-12T03:50:06.613Z,5.10
2023-01-12T03:52:36.154Z,5.00
2023-01-12T03:55:05.824Z,5.00
2023-01-12T03:57:33.857Z,4.90
2023-01-12T04:00:03.102Z,4.80
2023-01-12T04:02:39.684Z,4.80
2023-01-12T04:05:08.939Z,4.80
2023-01-12T04:07:35.986Z,4.70
2023-01-12T04:10:04.619Z,4.70
2023-01-12T04:12:31.618Z,4.60
2023-01-12T04:14:59.200Z,4.60
2023-01-12T04:17:28.136Z,4.40
2023-01-12T04:19:55.192Z,4.30
2023-01-12T04:22:40.849Z,4.30
2023-01-12T04:25:09.811Z,4.30
2023-01-12T04:27:37.285Z,4.20
2023-01-12T04:30:04.934Z,4.10
2023-01-12T04:32:31.948Z,4.00
2023-01-12T04:34:59.043Z,4.00
2023-01-12T04:37:26.086Z,4.00
2023-01-12T04:39:53.213Z,4.00
2023-01-12T04:42:38.998Z,4.00
2023-01-12T04:45:06.586Z,4.00
2023-01-12T04:47:34.502Z,4.10
2023-01-12T04:50:01.628Z,3.80
2023-01-12T04:52:28.689Z,3.80
2023-01-12T04:54:56.965Z,3.70
2023-01-12T04:57:24.513Z,3.60
2023-01-12T04:59:51.586Z,3.50
2023-01-12T05:02:18.693Z,3.50
2023-01-12T05:04:47.868Z,3.50
2023-01-12T05:07:15.385Z,3.40
2023-01-12T05:10:01.287Z,3.40
2023-01-12T05:12:28.390Z,3.30
2023-01-12T05:14:55.477Z,3.40
2023-01-12T05:17:22.630Z,3.30
2023-01-12T05:19:49.863Z,3.30
2023-01-12T05:22:16.967Z,3.30
2023-01-12T05:24:43.967Z,3.30
2023-01-12T05:27:11.149Z,3.30
2023-01-12T05:29:38.260Z,3.30
2023-01-12T05:32:05.341Z,3.30
2023-01-12T05:34:32.384Z,3.30
2023-01-12T05:36:59.570Z,3.30
2023-01-12T05:39:26.657Z,3.40
2023-01-12T05:42:11.991Z,3.40
2023-01-12T05:44:39.132Z,3.40
2023-01-12T05:47:06.127Z,3.40
2023-01-12T05:49:33.195Z,3.40
2023-01-12T05:52:00.239Z,3.40
2023-01-12T05:54:27.258Z,3.40
2023-01-12T05:56:55.582Z,3.50
2023-01-12T05:59:22.707Z,3.50
2023-01-12T06:01:49.804Z,3.50
2023-01-12T06:04:16.933Z,3.50
2023-01-12T06:06:44.049Z,3.50
2023-01-12T06:09:11.125Z,3.50
2023-01-12T06:11:56.598Z,3.50
2023-01-12T06:14:23.685Z,3.50
2023-01-12T06:16:50.742Z,3.50
2023-01-12T06:19:17.817Z,3.50
2023-01-12T06:21:44.848Z,3.50
2023-01-12T06:24:12.043Z,3.50
2023-01-12T06:26:39.199Z,3.50
2023-01-12T06:29:07.324Z,3.40
2023-01-12T06:31:34.525Z,3.50
2023-01-12T06:34:01.718Z,3.40
2023-01-12T06:36:28.693Z,3.50
2023-01-12T06:38:55.896Z,3.50
2023-01-12T06:41:41.554Z,3.50
2023-01-12T06:44:08.678Z,3.60
2023-01-12T06:46:35.729Z,3.60
2023-01-12T06:49:02.839Z,3.60
2023-01-12T06:51:29.954Z,3.60
2023-01-12T06:53:57.065Z,3.70
2023-01-12T06:56:24.349Z,3.70
2023-01-12T06:58:51.344Z,3.70
2023-01-12T07:01:18.699Z,3.80
2023-01-12T07:03:45.838Z,3.80
2023-01-12T07:06:14.567Z,3.80
2023-01-12T07:08:42.966Z,3.90
2023-01-12T07:11:12.288Z,3.90
2023-01-12T07:13:39.481Z,4.00
2023-01-12T07:16:07.446Z,4.00
2023-01-12T07:18:34.603Z,4.00
2023-01-12T07:21:08.159Z,4.10
2023-01-12T07:23:35.651Z,4.10
2023-01-12T07:26:02.776Z,4.20
2023-01-12T07:28:31.627Z,4.20
2023-01-12T07:31:03.237Z,4.20
2023-01-12T07:33:30.655Z,4.30
2023-01-12T07:35:59.554Z,4.30
2023-01-12T07:38:28.097Z,4.30
2023-01-12T07:40:57.873Z,4.30
2023-01-12T07:43:25.447Z,4.30
2023-01-12T07:45:52.687Z,4.30
2023-01-12T07:48:21.418Z,4.30
2023-01-12T07:50:48.500Z,4.30
2023-01-12T07:53:15.672Z,4.30
2023-01-12T07:55:44.006Z,4.30
2023-01-12T07:58:11.309Z,4.30
2023-01-12T08:00:38.684Z,4.30
2023-01-12T08:03:11.776Z,4.40
2023-01-12T08:05:39.740Z,4.40
2023-01-12T08:08:07.520Z,4.40
2023-01-12T08:10:35.033Z,4.40
2023-01-12T08:13:02.330Z,4.40
2023-01-12T08:15:33.988Z,4.40
2023-01-12T08:18:06.125Z,4.50
2023-01-12T08:20:36.132Z,4.50
2023-01-12T08:23:25.498Z,4.50
2023-01-12T08:25:58.649Z,4.60
2023-01-12T08:28:39.800Z,4.60
2023-01-12T08:31:10.740Z,4.60
2023-01-12T08:33:38.405Z,4.60
2023-01-12T08:36:08.116Z,4.60
2023-01-12T08:38:35.297Z,4.70
2023-01-12T08:41:20.743Z,4.80
2023-01-12T08:44:02.824Z,4.90
2023-01-12T08:46:47.092Z,5.00
2023-01-12T08:49:16.832Z,5.00
2023-01-12T08:51:45.259Z,5.20
2023-01-12T08:54:15.334Z,5.20
2023-01-12T08:56:42.592Z,5.30
2023-01-12T08:59:10.081Z,5.30
2023-01-12T09:01:37.436Z,5.40
2023-01-12T09:04:05.321Z,5.50
2023-01-12T09:06:36.206Z,5.50
2023-01-12T09:09:05.977Z,5.60
2023-01-12T09:11:33.206Z,5.60
2023-01-12T09:14:00.449Z,5.70
2023-01-12T09:16:29.544Z,5.80
2023-01-12T09:18:56.788Z,5.80
2023-01-12T09:21:25.814Z,5.90
2023-01-12T09:23:53.439Z,6.00
2023-01-12T09:26:23.295Z,6.10
2023-01-12T09:28:51.724Z,6.20
2023-01-12T09:31:22.545Z,6.20
2023-01-12T09:33:50.001Z,6.30
2023-01-12T09:36:22.224Z,6.20
2023-01-12T09:38:50.006Z,6.30
2023-01-12T09:41:18.482Z,6.30
2023-01-12T09:44:04.140Z,6.30
2023-01-12T09:46:57.435Z,6.30
2023-01-12T09:49:35.176Z,6.40
2023-01-12T09:52:17.651Z,6.40
2023-01-12T09:54:49.433Z,6.50
2023-01-12T09:57:41.373Z,6.50
2023-01-12T10:00:13.380Z,6.60
2023-01-12T10:03:21.870Z,6.60
2023-01-12T10:05:52.427Z,6.70
2023-01-12T10:08:36.373Z,6.70
2023-01-12T10:11:25.843Z,6.80
2023-01-12T10:14:20.948Z,6.80
2023-01-12T10:17:08.084Z,6.80
2023-01-12T10:20:02.612Z,6.90
2023-01-12T10:22:39.941Z,6.80
2023-01-12T10:25:15.970Z,6.80
2023-01-12T10:27:48.115Z,6.80
2023-01-12T10:30:42.135Z,6.90
2023-01-12T10:33:11.024Z,7.00
2023-01-12T10:36:08.749Z,7.00
2023-01-12T10:38:53.123Z,7.10
2023-01-12T10:41:22.360Z,7.20
2023-01-12T10:43:55.532Z,7.10
2023-01-12T10:46:27.026Z,7.20
2023-01-12T10:48:56.385Z,7.10
2023-01-12T10:51:26.344Z,7.10
2023-01-12T10:53:58.762Z,7.20
2023-01-12T10:56:36.385Z,7.30
2023-01-12T10:59:12.305Z,7.30
2023-01-12T11:01:47.011Z,7.40
2023-01-12T11:04:19.125Z,7.50
2023-01-12T11:07:14.314Z,7.50
2023-01-12T11:09:43.602Z,7.60
2023-01-12T11:12:24.248Z,7.60
2023-01-12T11:15:02.260Z,7.60
2023-01-12T11:17:59.980Z,7.70
2023-01-12T11:20:41.978Z,7.70
2023-01-12T11:23:15.072Z,7.70
2023-01-12T11:25:46.169Z,7.80
2023-01-12T11:28:19.347Z,7.80
2023-01-12T11:30:54.900Z,7.70
2023-01-12T11:33:32.166Z,7.80
2023-01-12T11:36:09.887Z,7.80
2023-01-12T11:38:47.125Z,7.80
2023-01-12T11:41:43.344Z,7.80
2023-01-12T11:44:20.627Z,7.80
2023-01-12T11:47:14.659Z,7.90
2023-01-12T11:49:48.877Z,7.90
2023-01-12T11:52:17.026Z,7.90
2023-01-12T11:54:44.352Z,7.90
2023-01-12T11:57:41.372Z,7.90
2023-01-12T12:00:43.534Z,7.90
2023-01-12T12:03:38.895Z,7.90
2023-01-12T12:06:24.278Z,7.90
2023-01-12T12:09:19.395Z,7.90
2023-01-12T12:11:53.321Z,7.90
2023-01-12T12:14:48.533Z,8.00
2023-01-12T12:17:19.257Z,8.00
2023-01-12T12:20:31.862Z,8.00
2023-01-12T12:23:17.795Z,7.90
2023-01-12T12:26:06.366Z,7.90
2023-01-12T12:29:00.643Z,7.90
2023-01-12T12:31:38.116Z,7.80
2023-01-12T12:34:53.879Z,7.80
2023-01-12T12:37:39.354Z,7.90
2023-01-12T12:40:53.771Z,7.80
2023-01-12T12:43:51.471Z,7.70
2023-01-12T12:46:40.914Z,7.70
2023-01-12T12:49:22.232Z,7.60
2023-01-12T12:51:50.174Z,7.60
2023-01-12T12:54:20.215Z,7.60
2023-01-12T12:56:48.756Z,7.50
2023-01-12T12:59:34.145Z,7.50
2023-01-12T13:02:03.664Z,7.40
2023-01-12T13:04:42.610Z,7.40
2023-01-12T13:07:16.649Z,7.30
2023-01-12T13:09:44.210Z,7.30
2023-01-12T13:12:55.532Z,7.30
2023-01-12T13:15:30.241Z,7.20
2023-01-12T13:17:57.447Z,7.10
2023-01-12T13:20:36.826Z,7.20
2023-01-12T13:23:25.068Z,7.10
2023-01-12T13:25:57.147Z,7.10
2023-01-12T13:28:24.289Z,7.10
2023-01-12T13:30:54.092Z,7.10
2023-01-12T13:33:24.138Z,7.20
2023-01-12T13:35:51.204Z,7.30
2023-01-12T13:38:49.225Z,7.40
2023-01-12T13:41:52.129Z,7.30
2023-01-12T13:44:44.755Z,7.40
2023-01-12T13:47:30.522Z,7.50
2023-01-12T13:50:00.847Z,7.60
2023-01-12T13:52:32.278Z,7.60
2023-01-12T13:55:00.078Z,7.60
2023-01-12T13:57:32.281Z,7.60
2023-01-12T14:00:11.637Z,7.60
2023-01-12T14:02:42.144Z,7.60
2023-01-12T14:05:59.350Z,7.60
2023-01-12T14:08:39.642Z,7.60
2023-01-12T14:11:28.367Z,7.60
2023-01-12T14:14:25.535Z,7.60
2023-01-12T14:17:13.432Z,7.60
2023-01-12T14:19:41.144Z,7.70
2023-01-12T14:22:18.756Z,7.70
2023-01-12T14:24:46.008Z,7.60
2023-01-12T14:27:21.349Z,7.70
2023-01-12T14:29:48.480Z,7.80
2023-01-12T14:32:15.688Z,7.70
2023-01-12T14:34:52.332Z,7.80
2023-01-12T14:37:31.559Z,7.80
2023-01-12T14:39:59.067Z,7.70
2023-01-12T14:42:44.918Z,7.70
2023-01-12T14:45:41.924Z,7.70
2023-01-12T14:48:32.431Z,7.80
2023-01-12T14:51:00.995Z,7.80
2023-01-12T14:53:40.324Z,7.80
2023-01-12T14:56:22.335Z,7.80
2023-01-12T14:58:49.614Z,7.80
2023-01-12T15:01:33.244Z,7.80
2023-01-12T15:04:00.991Z,7.80
2023-01-12T15:06:28.058Z,7.90
2023-01-12T15:08:58.914Z,7.90
2023-01-12T15:11:35.131Z,7.90
2023-01-12T15:14:04.657Z,7.90
2023-01-12T15:16:50.144Z,7.90
2023-01-12T15:19:35.812Z,7.90
2023-01-12T15:22:21.147Z,7.90
2023-01-12T15:25:06.909Z,7.90
2023-01-12T15:27:34.065Z,7.90
2023-01-12T15:30:01.152Z,7.90
2023-01-12T15:32:49.283Z,7.80
2023-01-12T15:35:18.159Z,7.80
2023-01-12T15:37:45.383Z,7.80
2023-01-12T15:40:16.540Z,7.80
2023-01-12T15:42:43.764Z,7.80
2023-01-12T15:45:24.922Z,7.80
2023-01-12T15:47:51.957Z,7.90
2023-01-12T15:50:19.022Z,7.80
2023-01-12T15:52:48.960Z,7.90
2023-01-12T15:55:20.133Z,7.90
2023-01-12T15:57:51.541Z,7.90
2023-01-12T16:00:21.801Z,7.90
2023-01-12T16:02:50.974Z,7.90
2023-01-12T16:05:21.029Z,7.80
2023-01-12T16:07:48.835Z,7.90
2023-01-12T16:10:17.242Z,7.90
2023-01-12T16:12:44.795Z,7.90
2023-01-12T16:15:30.531Z,7.90
2023-01-12T16:17:57.643Z,7.90
2023-01-12T16:20:24.735Z,7.90
2023-01-12T16:22:54.699Z,7.80
2023-01-12T16:25:21.706Z,7.80
2023-01-12T16:27:48.758Z,7.70
2023-01-12T16:30:16.551Z,7.70
2023-01-12T16:32:46.923Z,7.70
2023-01-12T16:35:15.415Z,7.70
2023-01-12T16:37:43.084Z,7.60
2023-01-12T16:40:11.141Z,7.60
2023-01-12T16:42:38.187Z,7.60
2023-01-12T16:45:06.328Z,7.60
2023-01-12T16:47:33.440Z,7.50
2023-01-12T16:50:00.639Z,7.50
2023-01-12T16:52:27.820Z,7.50
2023-01-12T16:54:54.883Z,7.50
2023-01-12T16:57:22.047Z,7.50
2023-01-12T16:59:49.847Z,7.50
2023-01-12T17:02:19.441Z,7.50
2023-01-12T17:04:49.153Z,7.50
2023-01-12T17:07:16.572Z,7.50
2023-01-12T17:09:44.139Z,7.50
2023-01-12T17:12:11.594Z,7.50
2023-01-12T17:14:39.182Z,7.60
2023-01-12T17:17:08.733Z,7.50
2023-01-12T17:19:37.671Z,7.50
2023-01-12T17:22:06.957Z,7.40
2023-01-12T17:24:36.621Z,7.40
2023-01-12T17:27:03.921Z,7.50
2023-01-12T17:29:31.085Z,7.50
2023-01-12T17:32:04.755Z,7.50
2023-01-12T17:34:39.449Z,7.50
2023-01-12T17:37:09.962Z,7.50
2023-01-12T17:39:43.018Z,7.50
2023-01-12T17:42:34.762Z,7.50
2023-01-12T17:45:02.491Z,7.40
2023-01-12T17:47:29.674Z,7.40
2023-01-12T17:49:56.795Z,7.40
2023-01-12T17:52:24.461Z,7.50
2023-01-12T17:54:51.564Z,7.50
2023-01-12T17:57:18.628Z,7.50
2023-01-12T17:59:45.820Z,7.50
2023-01-12T18:02:14.936Z,7.50
2023-01-12T18:04:42.172Z,7.50
2023-01-12T18:07:09.560Z,7.60
2023-01-12T18:09:37.226Z,7.60
2023-01-12T18:12:05.353Z,7.60
2023-01-12T18:14:32.564Z,7.60
2023-01-12T18:16:59.668Z,7.60
2023-01-12T18:19:26.773Z,7.60
2023-01-12T18:21:53.890Z,7.60
2023-01-12T18:24:22.411Z,7.70
2023-01-12T18:26:50.953Z,7.60
2023-01-12T18:29:18.005Z,7.70
2023-01-12T18:31:47.393Z,7.70
2023-01-12T18:34:16.719Z,7.70
2023-01-12T18:36:43.854Z,7.70
2023-01-12T18:39:18.625Z,7.70
2023-01-12T18:42:04.109Z,7.70
2023-01-12T18:44:32.844Z,7.80
2023-01-12T18:47:19.850Z,7.80
2023-01-12T18:49:50.503Z,7.80
2023-01-12T18:52:37.045Z,7.80
2023-01-12T18:55:05.631Z,7.80
2023-01-12T18:57:33.338Z,7.80
2023-01-12T19:00:18.055Z,7.80
2023-01-12T19:02:45.168Z,7.80
2023-01-12T19:05:33.587Z,7.80
2023-01-12T19:08:00.930Z,7.80
2023-01-12T19:10:29.885Z,7.90
2023-01-12T19:13:16.920Z,7.80
2023-01-12T19:16:02.806Z,7.80
2023-01-12T19:18:30.075Z,7.80
2023-01-12T19:21:22.890Z,7.80
2023-01-12T19:24:08.447Z,7.80
2023-01-12T19:26:53.914Z,7.90
2023-01-12T19:29:20.976Z,7.90
2023-01-12T19:31:48.067Z,7.90
2023-01-12T19:34:15.130Z,7.90
2023-01-12T19:36:42.162Z,7.90
2023-01-12T19:39:11.218Z,7.90
2023-01-12T19:41:56.649Z,7.90
2023-01-12T19:44:23.709Z,7.90
2023-01-12T19:46:50.984Z,7.90
2023-01-12T19:49:18.629Z,7.90
2023-01-12T19:51:48.849Z,7.90
2023-01-12T19:54:15.977Z,7.90
2023-01-12T19:56:45.778Z,7.90
2023-01-12T19:59:13.778Z,7.90
2023-01-12T20:01:40.855Z,7.90
2023-01-12T20:04:08.004Z,7.90
2023-01-12T20:06:35.990Z,7.90
2023-01-12T20:09:03.110Z,8.00
2023-01-12T20:11:30.286Z,7.90
2023-01-12T20:13:57.345Z,7.90
2023-01-12T20:16:24.620Z,7.90
2023-01-12T20:18:59.563Z,7.90
2023-01-12T20:21:26.678Z,7.90
2023-01-12T20:23:53.686Z,7.90
2023-01-12T20:26:20.812Z,7.90
2023-01-12T20:28:47.919Z,7.90
2023-01-12T20:31:16.431Z,8.00
2023-01-12T20:33:43.724Z,8.00
2023-01-12T20:36:16.504Z,8.00
2023-01-12T20:38:44.096Z,8.00
2023-01-12T20:41:11.253Z,8.00
2023-01-12T20:43:38.551Z,8.00
2023-01-12T20:46:10.602Z,8.00
2023-01-12T20:48:37.696Z,8.00
2023-01-12T20:51:09.351Z,8.00
2023-01-12T20:53:36.547Z,8.00
2023-01-12T20:56:04.478Z,8.00
2023-01-12T20:58:32.128Z,8.00
2023-01-12T21:00:59.261Z,8.00
2023-01-12T21:03:26.476Z,8.00
2023-01-12T21:05:54.057Z,8.00
2023-01-12T21:08:21.118Z,8.10
2023-01-12T21:10:50.656Z,8.10
2023-01-12T21:13:18.698Z,8.10
2023-01-12T21:15:46.095Z,8.10
2023-01-12T21:18:13.673Z,8.10
2023-01-12T21:20:42.772Z,8.10
2023-01-12T21:23:10.288Z,8.00
2023-01-12T21:25:43.947Z,8.00
2023-01-12T21:28:11.568Z,8.00
2023-01-12T21:30:39.440Z,8.00
2023-01-12T21:33:06.597Z,8.00
2023-01-12T21:35:33.949Z,8.00
2023-01-12T21:38:01.192Z,8.00
2023-01-12T21:40:28.796Z,8.00
2023-01-12T21:43:12.003Z,8.00
2023-01-12T21:45:42.538Z,8.00
2023-01-12T21:48:11.618Z,8.00
2023-01-12T21:50:39.192Z,8.00
2023-01-12T21:53:06.904Z,8.00
2023-01-12T21:55:35.121Z,8.00
2023-01-12T21:58:02.296Z,8.10
2023-01-12T22:00:30.140Z,8.10
2023-01-12T22:02:57.788Z,8.10
2023-01-12T22:05:25.907Z,8.10
2023-01-12T22:07:55.366Z,8.10
2023-01-12T22:10:25.394Z,8.10
2023-01-12T22:12:58.541Z,8.10
2023-01-12T22:15:27.482Z,8.10
2023-01-12T22:17:55.262Z,8.10
2023-01-12T22:20:24.285Z,8.10
2023-01-12T22:22:51.931Z,8.10
2023-01-12T22:25:19.274Z,8.10
2023-01-12T22:27:46.801Z,8.20
2023-01-12T22:30:17.413Z,8.10
2023-01-12T22:32:44.903Z,8.20
2023-01-12T22:35:13.012Z,8.20
2023-01-12T22:37:40.942Z,8.20
2023-01-12T22:40:10.354Z,8.20
2023-01-12T22:42:55.791Z,8.20
2023-01-12T22:45:23.071Z,8.20
2023-01-12T22:47:54.885Z,8.20
2023-01-12T22:50:23.517Z,8.20
2023-01-12T22:52:52.781Z,8.20
2023-01-12T22:55:21.497Z,8.20
2023-01-12T22:57:48.814Z,8.20
2023-01-12T23:00:17.783Z,8.20
2023-01-12T23:03:00.534Z,8.20
2023-01-12T23:05:32.033Z,8.20
2023-01-12T23:07:59.542Z,8.20
2023-01-12T23:10:26.690Z,8.20
2023-01-12T23:13:14.085Z,8.20
2023-01-12T23:15:46.392Z,8.20
2023-01-12T23:18:16.753Z,8.30
2023-01-12T23:20:44.023Z,8.30
2023-01-12T23:23:11.575Z,8.30
2023-01-12T23:25:39.463Z,8.30
2023-01-12T23:28:07.912Z,8.30
2023-01-12T23:30:35.196Z,8.30
2023-01-12T23:33:04.277Z,8.30
2023-01-12T23:35:36.083Z,8.30
2023-01-12T23:38:03.689Z,8.30
2023-01-12T23:40:31.045Z,8.30
2023-01-12T23:42:59.076Z,8.30
2023-01-12T23:45:26.225Z,8.30
2023-01-12T23:47:53.334Z,8.30
2023-01-12T23:50:21.042Z,8.30
2023-01-12T23:52:50.120Z,8.30
2023-01-12T23:55:18.236Z,8.30
2023-01-12T23:57:48.558Z,8.30
